createdAt,value
2023-03-24T00:01:25.714Z,14.74
2023-03-24T00:03:53.512Z,14.64
2023-03-24T00:06:23.003Z,14.61
2023-03-24T00:08:51.356Z,14.49
2023-03-24T00:11:21.427Z,14.43
2023-03-24T00:13:50.593Z,14.33
2023-03-24T00:16:19.910Z,14.23
2023-03-24T00:18:54.024Z,14.11
2023-03-24T00:21:24.991Z,14.09
2023-03-24T00:23:55.406Z,14.15
2023-03-24T00:26:25.435Z,14.27
2023-03-24T00:28:55.602Z,14.29
2023-03-24T00:31:24.658Z,14.33
2023-03-24T00:33:53.876Z,14.00
2023-03-24T00:36:24.561Z,14.09
2023-03-24T00:38:53.860Z,14.05
2023-03-24T00:41:25.083Z,14.03
2023-03-24T00:43:56.755Z,13.90
2023-03-24T00:46:28.338Z,13.83
2023-03-24T00:49:12.057Z,13.83
2023-03-24T00:51:41.845Z,13.89
2023-03-24T00:54:11.460Z,13.74
2023-03-24T00:56:40.972Z,13.80
2023-03-24T00:59:10.658Z,13.77
2023-03-24T01:01:41.262Z,13.68
2023-03-24T01:04:10.657Z,13.69
2023-03-24T01:06:39.499Z,13.79
2023-03-24T01:09:08.251Z,13.82
2023-03-24T01:11:41.512Z,13.91
2023-03-24T01:14:10.570Z,13.96
2023-03-24T01:16:38.409Z,14.03
2023-03-24T01:19:08.736Z,14.02
2023-03-24T01:21:38.739Z,14.10
2023-03-24T01:24:06.565Z,14.12
2023-03-24T01:26:35.438Z,13.95
2023-03-24T01:29:03.241Z,14.01
2023-03-24T01:31:31.179Z,13.88
2023-03-24T01:33:59.232Z,13.85
2023-03-24T01:36:27.338Z,13.95
2023-03-24T01:38:55.542Z,13.91
2023-03-24T01:41:23.600Z,13.87
2023-03-24T01:43:51.716Z,13.81
2023-03-24T01:46:21.374Z,13.78
2023-03-24T01:49:01.790Z,13.80
2023-03-24T01:51:40.412Z,13.86
2023-03-24T01:54:16.268Z,13.78
2023-03-24T01:56:50.916Z,13.80
2023-03-24T01:59:23.671Z,13.68
2023-03-24T02:02:10.269Z,13.75
2023-03-24T02:04:54.210Z,13.80
2023-03-24T02:07:53.172Z,13.67
2023-03-24T02:10:23.320Z,13.49
2023-03-24T02:12:51.404Z,13.34
2023-03-24T02:15:20.291Z,13.45
2023-03-24T02:17:54.878Z,13.43
2023-03-24T02:20:28.740Z,13.42
2023-03-24T02:23:24.176Z,13.52
2023-03-24T02:26:10.745Z,13.50
2023-03-24T02:28:53.984Z,13.32
2023-03-24T02:31:56.956Z,13.21
2023-03-24T02:34:55.236Z,13.23
2023-03-24T02:37:45.336Z,13.17
2023-03-24T02:40:24.583Z,13.21
2023-03-24T02:43:29.826Z,13.22
2023-03-24T02:46:28.878Z,13.19
2023-03-24T02:49:16.241Z,13.17
2023-03-24T02:51:54.251Z,13.14
2023-03-24T02:54:33.295Z,13.13
2023-03-24T02:57:09.232Z,13.07
2023-03-24T03:00:36.101Z,13.14
2023-03-24T03:03:12.190Z,13.08
2023-03-24T03:05:48.295Z,12.99
2023-03-24T03:08:18.351Z,12.90
2023-03-24T03:10:48.835Z,12.95
2023-03-24T03:13:24.955Z,12.99
2023-03-24T03:15:56.797Z,12.81
2023-03-24T03:18:33.305Z,12.72
2023-03-24T03:21:08.020Z,12.71
2023-03-24T03:23:44.765Z,12.65
2023-03-24T03:26:17.526Z,12.79
2023-03-24T03:28:57.982Z,12.73
2023-03-24T03:31:35.297Z,12.77
2023-03-24T03:34:19.256Z,12.81
2023-03-24T03:36:55.057Z,12.85
2023-03-24T03:39:29.770Z,12.60
2023-03-24T03:42:00.712Z,12.62
2023-03-24T03:44:28.905Z,12.61
2023-03-24T03:46:56.522Z,12.46
2023-03-24T03:49:34.288Z,12.35
2023-03-24T03:52:02.278Z,12.20
2023-03-24T03:54:31.982Z,12.12
2023-03-24T03:57:00.464Z,12.31
2023-03-24T03:59:35.498Z,12.48
2023-03-24T04:02:20.042Z,12.55
2023-03-24T04:05:05.969Z,12.56
2023-03-24T04:08:31.501Z,12.54
2023-03-24T04:11:41.504Z,12.51
2023-03-24T04:14:11.843Z,12.47
2023-03-24T04:17:06.277Z,12.40
2023-03-24T04:19:48.006Z,12.30
2023-03-24T04:22:38.490Z,12.31
2023-03-24T04:25:50.090Z,12.40
2023-03-24T04:28:22.339Z,12.46
2023-03-24T04:30:58.337Z,12.52
2023-03-24T04:33:45.744Z,12.47
2023-03-24T04:36:27.518Z,12.46
2023-03-24T04:39:28.365Z,12.42
2023-03-24T04:42:02.309Z,12.48
2023-03-24T04:44:33.296Z,12.49
2023-03-24T04:47:23.079Z,12.40
2023-03-24T04:50:31.120Z,12.17
2023-03-24T04:53:01.848Z,12.21
2023-03-24T04:55:48.367Z,12.34
2023-03-24T04:58:19.662Z,12.33
2023-03-24T05:00:48.454Z,12.34
2023-03-24T05:03:18.897Z,12.16
2023-03-24T05:05:49.602Z,12.20
2023-03-24T05:08:18.993Z,12.28
2023-03-24T05:10:48.242Z,12.28
2023-03-24T05:13:17.101Z,12.25
2023-03-24T05:15:53.978Z,12.23
2023-03-24T05:18:43.591Z,12.23
2023-03-24T05:21:12.205Z,12.37
2023-03-24T05:23:40.687Z,12.45
2023-03-24T05:26:10.362Z,12.30
2023-03-24T05:28:58.509Z,12.32
2023-03-24T05:31:26.175Z,12.21
2023-03-24T05:34:03.562Z,12.38
2023-03-24T05:36:34.537Z,12.42
2023-03-24T05:39:02.813Z,12.56
2023-03-24T05:41:42.501Z,12.80
2023-03-24T05:44:10.094Z,12.89
2023-03-24T05:46:38.357Z,12.98
2023-03-24T05:49:06.101Z,12.72
2023-03-24T05:51:37.884Z,12.77
2023-03-24T05:54:08.687Z,12.94
2023-03-24T05:56:48.295Z,13.12
2023-03-24T05:59:15.982Z,13.07
2023-03-24T06:02:12.600Z,13.12
2023-03-24T06:04:57.842Z,13.29
2023-03-24T06:07:26.987Z,13.31
2023-03-24T06:09:58.390Z,13.46
2023-03-24T06:12:28.071Z,13.74
2023-03-24T06:15:05.167Z,14.00
2023-03-24T06:17:34.211Z,14.16
2023-03-24T06:20:15.680Z,14.18
2023-03-24T06:23:07.205Z,14.30
2023-03-24T06:25:47.713Z,14.43
2023-03-24T06:28:26.153Z,14.05
2023-03-24T06:30:59.034Z,13.93
2023-03-24T06:33:34.405Z,13.93
2023-03-24T06:36:02.837Z,14.02
2023-03-24T06:38:32.166Z,14.24
2023-03-24T06:41:01.375Z,14.30
2023-03-24T06:43:30.215Z,14.31
2023-03-24T06:45:59.332Z,14.30
2023-03-24T06:48:28.912Z,14.62
2023-03-24T06:51:03.475Z,14.96
2023-03-24T06:53:31.604Z,15.14
2023-03-24T06:55:59.680Z,15.00
2023-03-24T06:58:34.666Z,15.26
2023-03-24T07:01:07.583Z,15.39
2023-03-24T07:03:36.900Z,15.39
2023-03-24T07:06:24.830Z,15.55
2023-03-24T07:08:56.892Z,15.59
2023-03-24T07:11:28.633Z,15.57
2023-03-24T07:13:59.975Z,16.01
2023-03-24T07:16:29.684Z,16.35
2023-03-24T07:19:19.527Z,16.51
2023-03-24T07:21:51.974Z,16.69
2023-03-24T07:24:30.565Z,16.79
2023-03-24T07:27:09.257Z,16.92
2023-03-24T07:29:37.586Z,17.40
2023-03-24T07:32:15.555Z,17.69
2023-03-24T07:34:45.889Z,17.96
2023-03-24T07:37:13.872Z,17.85
2023-03-24T07:39:41.539Z,18.18
2023-03-24T07:42:11.798Z,18.15
2023-03-24T07:44:56.281Z,17.76
2023-03-24T07:47:27.016Z,17.68
2023-03-24T07:49:57.485Z,17.55
2023-03-24T07:52:25.242Z,17.42
2023-03-24T07:54:55.902Z,16.88
2023-03-24T07:57:50.260Z,17.13
2023-03-24T08:00:19.929Z,17.03
2023-03-24T08:03:00.193Z,17.29
2023-03-24T08:05:48.803Z,17.40
2023-03-24T08:08:22.294Z,17.53
2023-03-24T08:10:51.082Z,17.49
2023-03-24T08:13:19.429Z,17.57
2023-03-24T08:15:47.119Z,17.47
2023-03-24T08:18:16.256Z,17.24
2023-03-24T08:20:44.224Z,17.22
2023-03-24T08:23:12.771Z,17.41
2023-03-24T08:25:40.404Z,17.56
2023-03-24T08:28:08.530Z,17.52
2023-03-24T08:30:36.392Z,18.01
2023-03-24T08:33:05.003Z,18.07
2023-03-24T08:35:35.058Z,18.09
2023-03-24T08:38:06.697Z,17.60
2023-03-24T08:40:37.252Z,18.11
2023-03-24T08:43:11.284Z,18.37
2023-03-24T08:45:38.934Z,18.36
2023-03-24T08:48:08.166Z,18.13
2023-03-24T08:50:39.952Z,18.32
2023-03-24T08:53:09.594Z,17.62
2023-03-24T08:55:41.749Z,17.63
2023-03-24T08:58:17.758Z,17.64
2023-03-24T09:00:47.692Z,18.56
2023-03-24T09:03:22.524Z,18.52
2023-03-24T09:05:51.014Z,19.12
2023-03-24T09:08:20.172Z,18.40
2023-03-24T09:10:47.881Z,19.63
2023-03-24T09:13:16.717Z,19.47
2023-03-24T09:15:52.906Z,20.36
2023-03-24T09:18:22.224Z,19.93
2023-03-24T09:20:51.187Z,20.63
2023-03-24T09:23:20.306Z,20.55
2023-03-24T09:25:53.877Z,20.66
2023-03-24T09:28:23.147Z,19.94
2023-03-24T09:30:51.335Z,19.56
2023-03-24T09:33:19.709Z,19.69
2023-03-24T09:35:56.014Z,19.90
2023-03-24T09:38:25.678Z,19.37
2023-03-24T09:41:03.034Z,18.22
2023-03-24T09:43:41.041Z,17.72
2023-03-24T09:46:20.463Z,17.67
2023-03-24T09:48:59.829Z,18.60
2023-03-24T09:51:30.121Z,18.78
2023-03-24T09:54:19.692Z,18.98
2023-03-24T09:56:51.285Z,18.00
2023-03-24T09:59:21.374Z,17.89
2023-03-24T10:01:49.822Z,18.34
2023-03-24T10:04:24.529Z,18.34
2023-03-24T10:07:03.919Z,18.60
2023-03-24T10:09:35.080Z,19.43
2023-03-24T10:12:21.224Z,19.83
2023-03-24T10:15:10.023Z,20.25
2023-03-24T10:18:08.202Z,20.29
2023-03-24T10:20:55.265Z,20.54
2023-03-24T10:23:37.948Z,20.91
2023-03-24T10:26:32.491Z,20.79
2023-03-24T10:29:24.993Z,21.89
2023-03-24T10:31:59.676Z,21.67
2023-03-24T10:34:33.857Z,21.19
2023-03-24T10:37:04.328Z,21.90
2023-03-24T10:39:44.282Z,23.08
2023-03-24T10:42:21.879Z,23.28
2023-03-24T10:44:51.524Z,23.61
2023-03-24T10:47:26.380Z,25.16
2023-03-24T10:50:14.331Z,24.49
2023-03-24T10:52:48.924Z,24.53
2023-03-24T10:55:19.771Z,24.15
2023-03-24T10:57:51.836Z,24.28
2023-03-24T11:00:29.718Z,23.63
2023-03-24T11:03:02.034Z,23.85
2023-03-24T11:05:36.872Z,24.28
2023-03-24T11:08:38.731Z,25.08
2023-03-24T11:11:32.500Z,25.78
2023-03-24T11:14:04.598Z,26.78
2023-03-24T11:16:36.767Z,26.94
2023-03-24T11:19:06.975Z,25.91
2023-03-24T11:21:38.129Z,25.95
2023-03-24T11:24:15.721Z,25.95
2023-03-24T11:27:02.301Z,25.91
2023-03-24T11:29:33.187Z,26.58
2023-03-24T11:32:03.591Z,26.26
2023-03-24T11:34:42.315Z,26.53
2023-03-24T11:37:23.493Z,26.00
2023-03-24T11:40:12.547Z,25.56
2023-03-24T11:42:45.465Z,26.45
2023-03-24T11:45:28.114Z,24.73
2023-03-24T11:47:58.954Z,26.30
2023-03-24T11:50:33.650Z,27.43
2023-03-24T11:53:11.938Z,29.13
2023-03-24T11:56:01.034Z,30.32
2023-03-24T11:58:55.139Z,28.63
2023-03-24T12:01:22.661Z,28.54
2023-03-24T12:03:51.256Z,28.40
2023-03-24T12:06:40.213Z,28.37
2023-03-24T12:09:34.955Z,29.10
2023-03-24T12:12:15.678Z,27.31
2023-03-24T12:14:44.198Z,27.48
2023-03-24T12:17:14.447Z,27.06
2023-03-24T12:19:42.129Z,27.14
2023-03-24T12:22:31.448Z,28.25
2023-03-24T12:25:11.664Z,28.49
2023-03-24T12:28:00.828Z,26.25
2023-03-24T12:30:44.490Z,26.49
2023-03-24T12:33:15.861Z,27.16
2023-03-24T12:36:09.082Z,27.30
2023-03-24T12:39:06.905Z,27.16
2023-03-24T12:41:46.800Z,26.04
2023-03-24T12:44:20.567Z,27.19
2023-03-24T12:47:10.287Z,26.61
2023-03-24T12:50:02.664Z,26.50
2023-03-24T12:53:06.687Z,27.39
2023-03-24T12:55:44.961Z,25.69
2023-03-24T12:58:21.825Z,26.63
2023-03-24T13:01:21.396Z,26.56
2023-03-24T13:04:32.353Z,27.15
2023-03-24T13:07:07.382Z,26.80
2023-03-24T13:09:41.791Z,26.77
2023-03-24T13:12:21.822Z,26.18
2023-03-24T13:14:54.006Z,26.58
2023-03-24T13:17:39.066Z,27.04
2023-03-24T13:20:13.607Z,26.56
2023-03-24T13:22:42.921Z,28.24
2023-03-24T13:25:40.853Z,28.72
2023-03-24T13:28:13.529Z,28.32
2023-03-24T13:30:43.191Z,28.97
2023-03-24T13:33:26.724Z,28.56
2023-03-24T13:36:33.376Z,29.17
2023-03-24T13:39:07.030Z,30.04
2023-03-24T13:41:39.911Z,31.60
2023-03-24T13:44:19.781Z,28.49
2023-03-24T13:47:05.948Z,29.65
2023-03-24T13:49:34.337Z,32.01
2023-03-24T13:52:06.439Z,31.38
2023-03-24T13:54:37.988Z,31.20
2023-03-24T13:57:12.926Z,31.40
2023-03-24T14:00:02.248Z,30.46
2023-03-24T14:02:46.613Z,32.11
2023-03-24T14:05:26.547Z,33.58
2023-03-24T14:08:13.205Z,29.90
2023-03-24T14:10:45.732Z,29.07
2023-03-24T14:13:13.887Z,31.77
2023-03-24T14:15:46.410Z,31.50
2023-03-24T14:18:37.544Z,32.51
2023-03-24T14:21:07.854Z,31.77
2023-03-24T14:23:37.707Z,32.37
2023-03-24T14:26:21.601Z,32.21
2023-03-24T14:28:52.957Z,30.65
2023-03-24T14:31:29.871Z,29.67
2023-03-24T14:34:03.713Z,31.14
2023-03-24T14:36:41.182Z,31.84
2023-03-24T14:39:37.042Z,30.01
2023-03-24T14:42:28.780Z,29.90
2023-03-24T14:44:58.687Z,31.38
2023-03-24T14:47:32.100Z,32.17
2023-03-24T14:50:10.650Z,31.64
2023-03-24T14:52:51.270Z,29.33
2023-03-24T14:55:20.073Z,29.69
2023-03-24T14:58:04.454Z,30.48
2023-03-24T15:00:51.764Z,33.71
2023-03-24T15:03:41.535Z,34.00
2023-03-24T15:06:15.987Z,33.90
2023-03-24T15:08:52.858Z,33.48
2023-03-24T15:11:33.833Z,32.87
2023-03-24T15:14:05.365Z,32.46
2023-03-24T15:16:36.457Z,30.30
2023-03-24T15:19:25.394Z,27.59
2023-03-24T15:22:06.477Z,26.08
2023-03-24T15:24:37.663Z,24.72
2023-03-24T15:27:08.273Z,24.29
2023-03-24T15:29:42.151Z,24.44
2023-03-24T15:32:22.721Z,23.64
2023-03-24T15:34:56.663Z,23.59
2023-03-24T15:37:30.842Z,23.13
2023-03-24T15:40:08.995Z,23.09
2023-03-24T15:42:46.701Z,22.50
2023-03-24T15:45:30.000Z,22.01
2023-03-24T15:47:59.245Z,21.71
2023-03-24T15:50:38.860Z,21.69
2023-03-24T15:53:23.919Z,21.91
2023-03-24T15:56:06.499Z,22.25
2023-03-24T15:59:15.227Z,22.55
2023-03-24T16:01:45.530Z,22.26
2023-03-24T16:04:15.922Z,22.15
2023-03-24T16:06:53.862Z,21.94
2023-03-24T16:09:27.723Z,21.66
2023-03-24T16:11:56.566Z,21.55
2023-03-24T16:14:29.895Z,21.67
2023-03-24T16:17:00.871Z,21.42
2023-03-24T16:19:29.270Z,21.37
2023-03-24T16:21:57.941Z,21.39
2023-03-24T16:24:26.012Z,21.33
2023-03-24T16:26:54.347Z,21.31
2023-03-24T16:29:24.338Z,21.33
2023-03-24T16:31:56.072Z,21.35
2023-03-24T16:34:24.639Z,21.25
2023-03-24T16:36:54.650Z,21.18
2023-03-24T16:39:25.742Z,21.27
2023-03-24T16:41:53.781Z,21.14
2023-03-24T16:44:22.495Z,21.09
2023-03-24T16:46:53.894Z,21.13
2023-03-24T16:49:23.215Z,21.11
2023-03-24T16:51:53.153Z,21.07
2023-03-24T16:54:21.790Z,21.16
2023-03-24T16:56:50.041Z,21.28
2023-03-24T16:59:17.686Z,21.23
2023-03-24T17:01:46.366Z,21.23
2023-03-24T17:04:17.092Z,21.19
2023-03-24T17:06:52.911Z,21.25
2023-03-24T17:09:22.189Z,21.17
2023-03-24T17:11:56.056Z,21.12
2023-03-24T17:14:25.075Z,21.11
2023-03-24T17:16:53.790Z,21.03
2023-03-24T17:19:24.918Z,20.95
2023-03-24T17:22:02.336Z,20.90
2023-03-24T17:24:38.114Z,20.86
2023-03-24T17:27:13.572Z,20.85
2023-03-24T17:29:42.323Z,20.73
2023-03-24T17:32:11.794Z,20.68
2023-03-24T17:34:42.845Z,20.62
2023-03-24T17:37:11.341Z,20.67
2023-03-24T17:39:40.472Z,20.43
2023-03-24T17:42:08.622Z,20.40
2023-03-24T17:44:36.345Z,20.42
2023-03-24T17:47:05.006Z,20.46
2023-03-24T17:49:33.863Z,20.39
2023-03-24T17:52:01.967Z,20.27
2023-03-24T17:54:30.533Z,20.23
2023-03-24T17:56:59.040Z,20.30
2023-03-24T17:59:27.560Z,20.16
2023-03-24T18:01:55.718Z,20.00
2023-03-24T18:04:23.993Z,19.95
2023-03-24T18:06:51.833Z,19.74
2023-03-24T18:09:19.928Z,19.70
2023-03-24T18:11:47.979Z,19.74
2023-03-24T18:14:16.535Z,19.61
2023-03-24T18:16:45.580Z,19.55
2023-03-24T18:19:13.676Z,19.63
2023-03-24T18:21:42.755Z,19.67
2023-03-24T18:24:12.141Z,19.80
2023-03-24T18:26:40.676Z,19.46
2023-03-24T18:29:08.805Z,19.56
2023-03-24T18:31:37.234Z,19.46
2023-03-24T18:34:05.194Z,19.39
2023-03-24T18:36:32.946Z,19.35
2023-03-24T18:39:07.127Z,19.42
2023-03-24T18:41:39.913Z,19.36
2023-03-24T18:44:11.527Z,19.32
2023-03-24T18:46:40.413Z,19.27
2023-03-24T18:49:13.734Z,19.23
2023-03-24T18:51:42.318Z,19.17
2023-03-24T18:54:13.151Z,19.05
2023-03-24T18:56:41.924Z,18.91
2023-03-24T18:59:11.856Z,18.94
2023-03-24T19:01:40.145Z,19.14
2023-03-24T19:04:09.340Z,19.08
2023-03-24T19:06:37.326Z,19.00
2023-03-24T19:09:05.750Z,19.07
2023-03-24T19:11:33.936Z,19.07
2023-03-24T19:14:02.343Z,18.98
2023-03-24T19:16:31.160Z,18.89
2023-03-24T19:19:00.277Z,18.78
2023-03-24T19:21:28.184Z,18.76
2023-03-24T19:23:57.208Z,18.80
2023-03-24T19:26:26.162Z,18.48
2023-03-24T19:28:54.469Z,18.50
2023-03-24T19:31:23.139Z,18.48
2023-03-24T19:33:52.589Z,18.43
2023-03-24T19:36:20.466Z,18.30
2023-03-24T19:38:48.586Z,18.23
2023-03-24T19:41:16.805Z,18.19
2023-03-24T19:43:44.965Z,18.16
2023-03-24T19:46:13.784Z,18.20
2023-03-24T19:48:41.544Z,18.03
2023-03-24T19:51:09.231Z,17.98
2023-03-24T19:53:37.339Z,18.08
2023-03-24T19:56:06.810Z,18.12
2023-03-24T19:58:34.946Z,18.18
2023-03-24T20:01:03.498Z,18.21
2023-03-24T20:03:32.005Z,18.26
2023-03-24T20:06:05.132Z,18.23
2023-03-24T20:08:33.342Z,18.25
2023-03-24T20:11:03.700Z,18.26
2023-03-24T20:13:32.316Z,18.16
2023-03-24T20:15:59.997Z,18.02
2023-03-24T20:18:28.748Z,17.97
2023-03-24T20:20:59.873Z,18.03
2023-03-24T20:23:28.760Z,18.08
2023-03-24T20:25:59.932Z,18.04
2023-03-24T20:28:28.588Z,17.99
2023-03-24T20:31:01.840Z,18.05
2023-03-24T20:33:30.264Z,18.03
2023-03-24T20:35:59.474Z,18.00
2023-03-24T20:38:27.510Z,18.09
2023-03-24T20:41:05.242Z,18.05
2023-03-24T20:43:36.204Z,18.08
2023-03-24T20:46:07.762Z,18.13
2023-03-24T20:48:36.954Z,18.24
2023-03-24T20:51:05.975Z,18.24
2023-03-24T20:53:35.917Z,18.22
2023-03-24T20:56:06.874Z,18.22
2023-03-24T20:58:37.657Z,18.06
2023-03-24T21:01:09.929Z,17.87
2023-03-24T21:03:38.418Z,17.78
2023-03-24T21:06:10.335Z,17.90
2023-03-24T21:08:38.131Z,17.95
2023-03-24T21:11:06.293Z,17.97
2023-03-24T21:13:37.684Z,18.00
2023-03-24T21:16:08.488Z,17.88
2023-03-24T21:18:37.845Z,17.89
2023-03-24T21:21:06.872Z,17.80
2023-03-24T21:23:39.125Z,17.75
2023-03-24T21:26:18.025Z,17.88
2023-03-24T21:28:46.028Z,17.96
2023-03-24T21:31:21.589Z,17.76
2023-03-24T21:33:51.075Z,17.73
2023-03-24T21:36:20.862Z,17.48
2023-03-24T21:38:50.023Z,17.41
2023-03-24T21:41:19.729Z,17.32
2023-03-24T21:43:51.316Z,17.44
2023-03-24T21:46:21.892Z,17.26
2023-03-24T21:48:51.939Z,17.13
2023-03-24T21:51:34.445Z,17.23
2023-03-24T21:54:04.758Z,17.28
2023-03-24T21:56:34.545Z,17.15
2023-03-24T21:59:02.854Z,17.01
2023-03-24T22:01:34.106Z,16.96
2023-03-24T22:04:03.544Z,16.93
2023-03-24T22:06:37.782Z,16.95
2023-03-24T22:09:08.370Z,16.92
2023-03-24T22:11:42.587Z,16.81
2023-03-24T22:14:11.351Z,16.91
2023-03-24T22:16:39.812Z,17.03
2023-03-24T22:19:07.900Z,17.02
2023-03-24T22:21:36.357Z,16.94
2023-03-24T22:24:06.097Z,17.10
2023-03-24T22:26:34.724Z,17.13
2023-03-24T22:29:03.509Z,17.26
2023-03-24T22:31:31.719Z,17.28
2023-03-24T22:34:00.339Z,17.33
2023-03-24T22:36:28.436Z,17.34
2023-03-24T22:38:56.553Z,17.31
2023-03-24T22:41:25.133Z,17.21
2023-03-24T22:43:52.709Z,17.20
2023-03-24T22:46:22.360Z,17.14
2023-03-24T22:48:50.484Z,17.08
2023-03-24T22:51:19.598Z,17.08
2023-03-24T22:53:48.461Z,16.99
2023-03-24T22:56:17.087Z,16.87
2023-03-24T22:58:44.723Z,16.93
2023-03-24T23:01:12.479Z,16.85
2023-03-24T23:03:40.780Z,16.90
2023-03-24T23:06:11.092Z,16.94
2023-03-24T23:08:40.283Z,16.99
2023-03-24T23:11:09.115Z,16.90
2023-03-24T23:13:36.912Z,16.90
2023-03-24T23:16:05.753Z,17.02
2023-03-24T23:18:34.208Z,16.79
2023-03-24T23:21:07.891Z,16.88
2023-03-24T23:23:36.940Z,16.66
2023-03-24T23:26:05.889Z,16.62
2023-03-24T23:28:34.811Z,16.62
2023-03-24T23:31:03.088Z,16.69
2023-03-24T23:33:30.874Z,16.70
2023-03-24T23:35:59.325Z,16.69
2023-03-24T23:38:27.590Z,16.64
2023-03-24T23:40:55.707Z,16.47
2023-03-24T23:43:23.875Z,16.50
2023-03-24T23:45:56.929Z,16.59
2023-03-24T23:48:25.658Z,16.62
2023-03-24T23:51:01.662Z,16.70
2023-03-24T23:53:30.802Z,16.72
2023-03-24T23:56:02.070Z,16.91
2023-03-24T23:58:33.562Z,16.86
